Atlanta, Georgia
Traffic Map
Current Weather Conditions
Atlanta, Georgia
Scattered Clouds
Scattered Clouds
49°
Feels Like: 44°
Wind Chill: 44° Ceiling: Unl
Heat Index: 49° Visibility: 10mi
Dew Point: 31° Wind: 14mph
Humidity: 50% Direction: 320° (NW)
Pressure: 30.18in Gusts: 0mph
Raw Report DataKATL 161652Z 32012KT 10SM FEW180 SCT250 09/M01 A3018 RMK AO2 SLP224 T00941006
Traffic Incident Summary
Active as of:
Severity:
Category:
InformationThere was an issue retrieving the traffic information for this location. Please try a different location or try again shortly.
Advertisements